createdAt,value
2018-12-06T00:00:35.793Z,85.75
2018-12-06T00:03:06.413Z,86.12
2018-12-06T00:05:37.048Z,85.64
2018-12-06T00:08:19.528Z,85.36
2018-12-06T00:10:50.683Z,85.83
2018-12-06T00:13:20.931Z,85.21
2018-12-06T00:15:51.854Z,85.01
2018-12-06T00:18:22.441Z,84.53
2018-12-06T00:20:52.611Z,84.74
2018-12-06T00:23:23.694Z,85.40
2018-12-06T00:25:54.753Z,84.92
2018-12-06T00:28:30.954Z,84.97
2018-12-06T00:31:03.251Z,85.43
2018-12-06T00:33:34.830Z,84.97
2018-12-06T00:36:06.712Z,85.04
2018-12-06T00:38:37.849Z,85.06
2018-12-06T00:41:16.467Z,85.58
2018-12-06T00:43:47.799Z,85.00
2018-12-06T00:46:18.498Z,85.69
2018-12-06T00:48:48.850Z,84.76
2018-12-06T00:51:19.623Z,84.76
2018-12-06T00:53:49.755Z,84.47
2018-12-06T00:56:23.657Z,84.86
2018-12-06T00:58:55.090Z,85.19
2018-12-06T01:01:27.888Z,84.31
2018-12-06T01:03:58.008Z,85.62
2018-12-06T01:06:29.012Z,85.71
2018-12-06T01:09:00.138Z,84.86
2018-12-06T01:11:31.123Z,84.65
2018-12-06T01:14:03.861Z,84.61
2018-12-06T01:16:35.509Z,85.24
2018-12-06T01:19:09.243Z,85.02
2018-12-06T01:21:40.851Z,84.54
2018-12-06T01:24:12.635Z,85.50
2018-12-06T01:26:43.429Z,84.92
2018-12-06T01:29:13.964Z,85.65
2018-12-06T01:31:44.972Z,84.96
2018-12-06T01:34:15.513Z,85.58
2018-12-06T01:36:46.316Z,85.78
2018-12-06T01:39:17.208Z,85.69
2018-12-06T01:41:48.119Z,86.16
2018-12-06T01:44:19.128Z,85.99
2018-12-06T01:46:49.636Z,85.69
2018-12-06T01:49:26.127Z,86.12
2018-12-06T01:51:57.366Z,86.04
2018-12-06T01:54:28.317Z,86.00
2018-12-06T01:56:58.430Z,86.84
2018-12-06T01:59:29.375Z,87.19
2018-12-06T02:02:02.187Z,86.46
2018-12-06T02:04:35.763Z,86.70
2018-12-06T02:18:00.710Z,87.07
2018-12-06T02:23:10.754Z,86.79
2018-12-06T02:25:43.319Z,87.66
2018-12-06T02:28:15.023Z,88.17
2018-12-06T02:30:45.680Z,88.00
2018-12-06T02:33:16.455Z,87.45
2018-12-06T02:35:47.346Z,88.00
2018-12-06T02:38:18.214Z,87.41
2018-12-06T02:40:48.768Z,88.50
2018-12-06T02:43:20.009Z,87.95
2018-12-06T02:45:50.188Z,87.10
2018-12-06T02:48:27.009Z,87.55
2018-12-06T02:50:58.331Z,87.55
2018-12-06T02:53:29.685Z,88.02
2018-12-06T02:56:02.525Z,88.31
2018-12-06T02:58:34.383Z,88.95
2018-12-06T03:01:09.243Z,88.98
2018-12-06T03:03:46.236Z,89.45
2018-12-06T03:06:17.654Z,89.56
2018-12-06T03:08:50.445Z,89.04
2018-12-06T03:11:21.460Z,90.10
2018-12-06T03:13:54.495Z,91.87
2018-12-06T03:16:25.336Z,91.69
2018-12-06T03:18:57.509Z,91.71
2018-12-06T03:21:29.454Z,92.46
2018-12-06T03:24:06.396Z,92.19
2018-12-06T03:26:37.482Z,92.70
2018-12-06T03:29:16.384Z,93.76
2018-12-06T03:31:47.339Z,93.38
2018-12-06T03:34:17.474Z,94.10
2018-12-06T03:36:51.326Z,94.05
2018-12-06T03:39:22.547Z,93.21
2018-12-06T03:41:53.552Z,92.54
2018-12-06T03:44:33.322Z,91.86
2018-12-06T03:47:03.956Z,92.34
2018-12-06T03:49:34.701Z,92.39
2018-12-06T03:52:06.362Z,92.63
2018-12-06T03:54:37.775Z,92.47
2018-12-06T03:57:09.769Z,92.75
2018-12-06T03:59:43.382Z,92.05
2018-12-06T04:02:15.025Z,92.22
2018-12-06T04:04:47.706Z,91.67
2018-12-06T04:07:24.748Z,92.22
2018-12-06T04:09:57.674Z,93.01
2018-12-06T04:12:28.909Z,92.92
2018-12-06T04:14:59.430Z,94.24
2018-12-06T04:17:29.719Z,93.74
2018-12-06T04:20:00.605Z,93.14
2018-12-06T04:22:30.742Z,93.58
2018-12-06T04:25:05.033Z,93.69
2018-12-06T04:27:35.673Z,93.98
2018-12-06T04:30:08.790Z,94.61
2018-12-06T04:32:39.914Z,94.66
2018-12-06T04:35:10.816Z,94.49
2018-12-06T04:37:41.046Z,94.19
2018-12-06T04:40:11.956Z,94.70
2018-12-06T04:42:42.858Z,93.77
2018-12-06T04:45:16.412Z,94.19
2018-12-06T04:47:46.917Z,94.07
2018-12-06T04:50:23.685Z,94.16
2018-12-06T04:52:57.650Z,94.98
2018-12-06T04:55:29.041Z,94.36
2018-12-06T04:58:02.347Z,95.00
2018-12-06T05:00:35.062Z,94.76
2018-12-06T05:03:12.556Z,95.08
2018-12-06T05:05:43.826Z,95.10
2018-12-06T05:08:14.698Z,95.23
2018-12-06T05:10:44.764Z,94.68
2018-12-06T05:13:15.613Z,95.31
2018-12-06T05:15:45.973Z,95.45
2018-12-06T05:18:16.592Z,94.89
2018-12-06T05:20:47.229Z,95.42
2018-12-06T05:23:17.734Z,95.28
2018-12-06T05:25:48.335Z,95.42
2018-12-06T05:28:22.214Z,95.54
2018-12-06T05:30:52.985Z,95.87
2018-12-06T05:33:26.241Z,95.90
2018-12-06T05:35:57.063Z,95.99
2018-12-06T05:38:31.984Z,95.72
2018-12-06T05:41:04.852Z,95.99
2018-12-06T05:43:36.224Z,95.66
2018-12-06T05:46:09.034Z,96.46
2018-12-06T05:48:39.823Z,95.97
2018-12-06T05:51:10.325Z,95.79
2018-12-06T05:53:46.894Z,95.57
2018-12-06T05:56:18.427Z,95.68
2018-12-06T05:58:51.108Z,95.86
2018-12-06T06:01:23.997Z,96.49
2018-12-06T06:03:56.198Z,96.41
2018-12-06T06:06:27.219Z,96.44
2018-12-06T06:09:01.097Z,96.59
2018-12-06T06:11:31.594Z,96.29
2018-12-06T06:14:02.108Z,96.28
2018-12-06T06:16:32.450Z,96.32
2018-12-06T06:19:09.228Z,96.49
2018-12-06T06:21:46.069Z,97.00
2018-12-06T06:24:16.174Z,96.58
2018-12-06T06:26:47.283Z,96.92
2018-12-06T06:29:20.316Z,96.82
2018-12-06T06:31:51.384Z,97.09
2018-12-06T06:34:21.906Z,96.98
2018-12-06T06:36:52.490Z,97.22
2018-12-06T06:39:23.408Z,97.27
2018-12-06T06:41:53.769Z,96.94
2018-12-06T06:44:24.546Z,97.12
2018-12-06T06:46:54.666Z,97.28
2018-12-06T06:49:25.383Z,97.07
2018-12-06T06:51:57.327Z,96.77
2018-12-06T06:54:30.833Z,96.26
2018-12-06T06:57:03.511Z,96.28
2018-12-06T06:59:35.521Z,96.85
2018-12-06T07:02:08.561Z,96.85
2018-12-06T07:04:44.820Z,96.28
2018-12-06T07:07:15.666Z,96.10
2018-12-06T07:09:46.400Z,95.17
2018-12-06T07:12:20.416Z,95.39
2018-12-06T07:14:51.542Z,95.84
2018-12-06T07:17:24.601Z,96.27
2018-12-06T07:19:58.471Z,96.42
2018-12-06T07:22:31.477Z,95.68
2018-12-06T07:25:02.588Z,94.96
2018-12-06T07:27:35.573Z,95.40
2018-12-06T07:30:12.256Z,94.97
2018-12-06T07:32:41.294Z,95.68
2018-12-06T07:35:14.153Z,95.55
2018-12-06T07:37:44.864Z,95.67
2018-12-06T07:40:15.701Z,95.39
2018-12-06T07:42:46.025Z,96.11
2018-12-06T07:45:16.593Z,95.68
2018-12-06T07:47:52.387Z,96.20
2018-12-06T07:50:24.518Z,96.01
2018-12-06T07:52:54.572Z,96.11
2018-12-06T07:55:24.715Z,96.09
2018-12-06T07:57:58.585Z,95.51
2018-12-06T08:00:30.793Z,95.90
2018-12-06T08:03:03.505Z,95.57
2018-12-06T08:05:35.556Z,96.14
2018-12-06T08:08:07.848Z,95.83
2018-12-06T08:10:38.737Z,95.38
2018-12-06T08:13:12.740Z,94.93
2018-12-06T08:15:42.824Z,94.73
2018-12-06T08:18:13.772Z,94.75
2018-12-06T08:20:45.521Z,94.07
2018-12-06T08:23:15.682Z,95.12
2018-12-06T08:25:47.048Z,94.91
2018-12-06T08:28:18.930Z,94.57
2018-12-06T08:30:51.840Z,95.64
2018-12-06T08:33:23.948Z,94.92
2018-12-06T08:35:55.100Z,94.07
2018-12-06T08:38:25.420Z,94.27
2018-12-06T08:40:55.860Z,94.24
2018-12-06T08:43:26.549Z,94.25
2018-12-06T08:45:56.896Z,93.53
2018-12-06T08:48:31.561Z,94.44
2018-12-06T08:51:01.793Z,94.97
2018-12-06T08:53:32.087Z,94.97
2018-12-06T08:56:03.075Z,94.71
2018-12-06T08:58:40.812Z,94.69
2018-12-06T09:01:13.498Z,95.14
2018-12-06T09:03:43.894Z,95.18
2018-12-06T09:06:15.126Z,95.51
2018-12-06T09:08:45.385Z,95.31
2018-12-06T09:11:16.079Z,94.90
2018-12-06T09:13:46.998Z,94.65
2018-12-06T09:16:20.865Z,95.02
2018-12-06T09:18:57.940Z,95.11
2018-12-06T09:21:28.280Z,94.44
2018-12-06T09:24:00.087Z,94.70
2018-12-06T09:26:30.575Z,94.20
2018-12-06T09:29:03.065Z,94.94
2018-12-06T09:31:35.241Z,94.01
2018-12-06T09:34:11.449Z,94.69
2018-12-06T09:36:42.124Z,93.84
2018-12-06T09:39:12.789Z,94.45
2018-12-06T09:41:43.031Z,94.31
2018-12-06T09:44:13.192Z,94.66
2018-12-06T09:46:44.184Z,94.52
2018-12-06T09:49:15.058Z,94.96
2018-12-06T09:51:45.742Z,94.68
2018-12-06T09:54:19.869Z,94.36
2018-12-06T09:56:53.219Z,93.64
2018-12-06T09:59:23.717Z,94.82
2018-12-06T10:01:54.238Z,93.72
2018-12-06T10:04:25.248Z,94.31
2018-12-06T10:07:02.065Z,94.62
2018-12-06T10:09:32.269Z,94.37
2018-12-06T10:12:06.255Z,94.96
2018-12-06T10:18:11.392Z,95.19
2018-12-06T10:24:43.415Z,96.96
2018-12-06T10:27:14.305Z,97.01
2018-12-06T10:29:45.597Z,97.59
2018-12-06T10:32:18.159Z,98.11
2018-12-06T10:34:53.471Z,97.86
2018-12-06T10:37:23.516Z,98.92
2018-12-06T10:39:57.031Z,99.67
2018-12-06T10:42:27.572Z,99.71
2018-12-06T10:44:58.711Z,99.89
2018-12-06T10:47:31.788Z,98.98
2018-12-06T10:50:02.510Z,100.00
2018-12-06T10:52:32.697Z,100.00
2018-12-06T10:55:03.884Z,100.00
2018-12-06T10:57:34.550Z,100.00
2018-12-06T11:00:06.734Z,100.00
2018-12-06T11:02:43.984Z,100.00
2018-12-06T11:05:17.086Z,100.00
2018-12-06T11:07:49.701Z,100.00
2018-12-06T11:10:21.932Z,100.00
2018-12-06T11:12:54.416Z,100.00
2018-12-06T11:15:27.781Z,100.00
2018-12-06T11:17:58.893Z,100.00
2018-12-06T11:20:32.423Z,100.00
2018-12-06T11:23:02.907Z,100.00
2018-12-06T11:25:36.181Z,100.00
2018-12-06T11:28:08.423Z,100.00
2018-12-06T11:30:38.811Z,100.00
2018-12-06T11:33:12.501Z,100.00
2018-12-06T11:35:44.947Z,100.00
2018-12-06T11:38:15.881Z,100.00
2018-12-06T11:40:50.940Z,100.00
2018-12-06T11:43:28.990Z,100.00
2018-12-06T11:46:00.719Z,100.00
2018-12-06T11:48:31.964Z,100.00
2018-12-06T11:51:04.930Z,100.00
2018-12-06T11:53:35.674Z,100.00
2018-12-06T11:56:06.304Z,100.00
2018-12-06T11:58:37.116Z,100.00
2018-12-06T12:01:07.698Z,100.00
2018-12-06T12:03:40.409Z,100.00
2018-12-06T12:06:11.833Z,100.00
2018-12-06T12:08:47.444Z,100.00
2018-12-06T12:11:19.723Z,100.00
2018-12-06T12:13:49.820Z,100.00
2018-12-06T12:20:16.008Z,100.00
2018-12-06T12:22:49.850Z,100.00
2018-12-06T12:25:21.265Z,100.00
2018-12-06T12:27:51.962Z,100.00
2018-12-06T12:30:23.056Z,100.00
2018-12-06T12:32:55.845Z,100.00
2018-12-06T12:35:27.046Z,100.00
2018-12-06T12:41:52.506Z,100.00
2018-12-06T12:44:24.733Z,100.00
2018-12-06T12:46:57.493Z,100.00
2018-12-06T12:49:30.172Z,100.00
2018-12-06T12:52:01.188Z,100.00
2018-12-06T12:54:32.217Z,100.00
2018-12-06T12:57:08.517Z,100.00
2018-12-06T12:59:39.218Z,100.00
2018-12-06T13:02:10.053Z,100.00
2018-12-06T13:04:40.469Z,100.00
2018-12-06T13:07:13.372Z,100.00
2018-12-06T13:09:45.120Z,100.00
2018-12-06T13:12:18.803Z,100.00
2018-12-06T13:14:49.103Z,100.00
2018-12-06T13:17:20.498Z,100.00
2018-12-06T13:19:53.711Z,100.00
2018-12-06T13:22:24.334Z,100.00
2018-12-06T13:24:55.752Z,100.00
2018-12-06T13:27:26.324Z,100.00
2018-12-06T13:29:59.732Z,100.00
2018-12-06T13:32:30.715Z,100.00
2018-12-06T13:35:01.518Z,100.00
2018-12-06T13:37:32.148Z,100.00
2018-12-06T13:40:06.456Z,100.00
2018-12-06T13:42:37.143Z,100.00
2018-12-06T13:45:09.732Z,100.00
2018-12-06T13:47:41.077Z,100.00
2018-12-06T13:50:13.710Z,100.00
2018-12-06T13:52:45.492Z,100.00
2018-12-06T13:55:18.970Z,100.00
2018-12-06T13:57:51.659Z,100.00
2018-12-06T14:00:25.183Z,100.00
2018-12-06T14:02:57.039Z,100.00
2018-12-06T14:05:29.456Z,100.00
2018-12-06T14:08:00.556Z,100.00
2018-12-06T14:10:35.608Z,100.00
2018-12-06T14:13:07.856Z,100.00
2018-12-06T14:15:39.129Z,100.00
2018-12-06T14:18:12.322Z,100.00
2018-12-06T14:20:45.234Z,100.00
2018-12-06T14:23:15.854Z,100.00
2018-12-06T14:25:46.494Z,100.00
2018-12-06T14:28:21.638Z,100.00
2018-12-06T14:30:53.520Z,100.00
2018-12-06T14:33:24.933Z,100.00
2018-12-06T14:35:55.654Z,100.00
2018-12-06T14:38:27.985Z,100.00
2018-12-06T14:40:59.990Z,100.00
2018-12-06T14:43:31.036Z,100.00
2018-12-06T14:49:56.485Z,100.00
2018-12-06T14:52:28.161Z,100.00
2018-12-06T14:55:00.950Z,100.00
2018-12-06T14:57:31.921Z,100.00
2018-12-06T15:00:02.049Z,100.00
2018-12-06T15:02:32.570Z,100.00
2018-12-06T15:05:03.440Z,100.00
2018-12-06T15:07:35.783Z,100.00
2018-12-06T15:10:08.892Z,100.00
2018-12-06T15:12:40.013Z,100.00
2018-12-06T15:15:11.895Z,100.00
2018-12-06T15:17:45.887Z,100.00
2018-12-06T15:20:16.461Z,100.00
2018-12-06T15:22:46.814Z,100.00
2018-12-06T15:25:18.440Z,100.00
2018-12-06T15:27:51.791Z,100.00
2018-12-06T15:30:22.200Z,100.00
2018-12-06T15:32:52.705Z,100.00
2018-12-06T15:35:23.909Z,100.00
2018-12-06T15:37:56.881Z,100.00
2018-12-06T15:40:31.931Z,100.00
2018-12-06T15:43:03.474Z,100.00
2018-12-06T15:45:36.677Z,100.00
2018-12-06T15:48:09.470Z,100.00
2018-12-06T15:50:40.602Z,100.00
2018-12-06T15:53:11.229Z,100.00
2018-12-06T15:55:41.474Z,100.00
2018-12-06T15:58:12.333Z,100.00
2018-12-06T16:00:45.869Z,100.00
2018-12-06T16:03:16.056Z,100.00
2018-12-06T16:05:46.736Z,100.00
2018-12-06T16:08:18.309Z,100.00
2018-12-06T16:10:51.182Z,100.00
2018-12-06T16:13:29.700Z,100.00
2018-12-06T16:16:01.369Z,100.00
2018-12-06T16:18:32.159Z,100.00
2018-12-06T16:21:05.108Z,100.00
2018-12-06T16:23:36.181Z,100.00
2018-12-06T16:26:07.197Z,100.00
2018-12-06T16:28:40.296Z,100.00
2018-12-06T16:31:13.176Z,100.00
2018-12-06T16:33:45.851Z,100.00
2018-12-06T16:36:19.143Z,100.00
2018-12-06T16:38:52.130Z,100.00
2018-12-06T16:41:25.118Z,100.00
2018-12-06T16:44:06.036Z,100.00
2018-12-06T16:46:39.689Z,100.00
2018-12-06T16:49:12.504Z,100.00
2018-12-06T16:51:45.741Z,100.00
2018-12-06T16:57:54.273Z,100.00
2018-12-06T17:00:26.610Z,100.00
2018-12-06T17:02:58.323Z,100.00
2018-12-06T17:05:33.953Z,100.00
2018-12-06T17:08:10.887Z,100.00
2018-12-06T17:10:47.539Z,100.00
2018-12-06T17:13:20.990Z,100.00
2018-12-06T17:15:52.024Z,100.00
2018-12-06T17:18:23.753Z,100.00
2018-12-06T17:20:56.220Z,100.00
2018-12-06T17:23:29.981Z,100.00
2018-12-06T17:29:36.798Z,100.00
2018-12-06T17:32:07.537Z,100.00
2018-12-06T17:34:40.871Z,100.00
2018-12-06T17:37:11.259Z,100.00
2018-12-06T17:39:42.117Z,100.00
2018-12-06T17:42:12.872Z,100.00
2018-12-06T17:44:46.541Z,100.00
2018-12-06T17:47:19.903Z,100.00
2018-12-06T17:49:54.911Z,100.00
2018-12-06T17:52:30.130Z,100.00
2018-12-06T17:55:00.689Z,100.00
2018-12-06T17:57:31.874Z,100.00
2018-12-06T18:00:02.309Z,100.00
2018-12-06T18:02:32.827Z,100.00
2018-12-06T18:05:07.025Z,100.00
2018-12-06T18:07:37.827Z,100.00
2018-12-06T18:10:12.858Z,100.00
2018-12-06T18:12:45.977Z,100.00
2018-12-06T18:18:03.123Z,100.00
2018-12-06T18:20:35.455Z,100.00
2018-12-06T18:23:10.678Z,100.00
2018-12-06T18:25:44.311Z,100.00
2018-12-06T18:28:15.192Z,100.00
2018-12-06T18:30:50.257Z,100.00
2018-12-06T18:33:23.763Z,100.00
2018-12-06T18:35:56.471Z,100.00
2018-12-06T18:38:29.212Z,100.00
2018-12-06T18:41:00.479Z,100.00
2018-12-06T18:43:39.947Z,100.00
2018-12-06T18:46:11.470Z,100.00
2018-12-06T18:48:49.496Z,100.00
2018-12-06T18:51:20.226Z,100.00
2018-12-06T18:53:51.446Z,100.00
2018-12-06T18:56:24.199Z,100.00
2018-12-06T18:58:54.824Z,100.00
2018-12-06T19:01:25.771Z,100.00
2018-12-06T19:07:58.192Z,100.00
2018-12-06T19:10:29.626Z,100.00
2018-12-06T19:13:03.649Z,100.00
2018-12-06T19:15:53.697Z,100.00
2018-12-06T19:18:29.578Z,100.00
2018-12-06T19:21:01.209Z,100.00
2018-12-06T19:23:31.948Z,100.00
2018-12-06T19:26:04.522Z,100.00
2018-12-06T19:28:37.261Z,100.00
2018-12-06T19:31:09.578Z,100.00
2018-12-06T19:33:40.997Z,100.00
2018-12-06T19:36:18.841Z,100.00
2018-12-06T19:39:05.710Z,100.00
2018-12-06T19:41:36.281Z,100.00
2018-12-06T19:44:08.224Z,100.00
2018-12-06T19:46:39.343Z,100.00
2018-12-06T19:49:10.338Z,100.00
2018-12-06T19:51:45.098Z,100.00
2018-12-06T19:54:22.305Z,100.00
2018-12-06T19:57:00.208Z,100.00
2018-12-06T19:59:33.940Z,100.00
2018-12-06T20:02:04.310Z,100.00
2018-12-06T20:05:05.657Z,100.00
2018-12-06T20:07:40.131Z,100.00
2018-12-06T20:10:13.895Z,100.00
2018-12-06T20:12:55.263Z,100.00
2018-12-06T20:15:31.351Z,100.00
2018-12-06T20:18:02.520Z,100.00
2018-12-06T20:20:33.610Z,100.00
2018-12-06T20:23:07.774Z,100.00
2018-12-06T20:25:38.819Z,100.00
2018-12-06T20:28:11.906Z,100.00
2018-12-06T20:30:44.276Z,100.00
2018-12-06T20:33:20.512Z,100.00
2018-12-06T20:35:52.259Z,100.00
2018-12-06T20:38:26.617Z,100.00
2018-12-06T20:40:57.402Z,100.00
2018-12-06T20:43:28.987Z,100.00
2018-12-06T20:46:01.232Z,100.00
2018-12-06T20:48:32.893Z,100.00
2018-12-06T20:51:06.824Z,100.00
2018-12-06T20:53:43.513Z,100.00
2018-12-06T20:56:18.136Z,100.00
2018-12-06T20:58:58.350Z,100.00
2018-12-06T21:01:30.350Z,100.00
2018-12-06T21:04:04.340Z,100.00
2018-12-06T21:06:42.398Z,100.00
2018-12-06T21:09:18.764Z,100.00
2018-12-06T21:11:53.177Z,100.00
2018-12-06T21:14:29.164Z,100.00
2018-12-06T21:17:10.669Z,100.00
2018-12-06T21:19:42.623Z,100.00
2018-12-06T21:22:15.136Z,100.00
2018-12-06T21:24:51.561Z,100.00
2018-12-06T21:27:23.984Z,100.00
2018-12-06T21:30:00.271Z,100.00
2018-12-06T21:32:35.189Z,100.00
2018-12-06T21:35:08.767Z,100.00
2018-12-06T21:37:40.421Z,100.00
2018-12-06T21:40:13.912Z,100.00
2018-12-06T21:42:48.992Z,100.00
2018-12-06T21:45:23.694Z,100.00
2018-12-06T21:48:03.346Z,100.00
2018-12-06T21:50:40.016Z,100.00
2018-12-06T21:53:20.910Z,100.00
2018-12-06T21:55:52.948Z,100.00
2018-12-06T21:58:25.474Z,100.00
2018-12-06T22:01:22.219Z,100.00
2018-12-06T22:03:54.684Z,100.00
2018-12-06T22:06:29.157Z,100.00
2018-12-06T22:09:03.568Z,100.00
2018-12-06T22:11:43.210Z,100.00
2018-12-06T22:14:14.815Z,100.00
2018-12-06T22:16:52.453Z,100.00
2018-12-06T22:19:23.213Z,100.00
2018-12-06T22:21:57.468Z,100.00
2018-12-06T22:24:33.147Z,100.00
2018-12-06T22:27:04.692Z,100.00
2018-12-06T22:29:43.770Z,100.00
2018-12-06T22:32:16.937Z,100.00
2018-12-06T22:34:48.554Z,100.00
2018-12-06T22:37:21.837Z,100.00
2018-12-06T22:39:58.095Z,100.00
2018-12-06T22:42:30.395Z,100.00
2018-12-06T22:45:14.758Z,100.00
2018-12-06T22:51:29.014Z,100.00
2018-12-06T22:54:00.199Z,100.00
2018-12-06T22:56:31.791Z,100.00
2018-12-06T22:59:11.095Z,100.00
2018-12-06T23:01:50.599Z,100.00
2018-12-06T23:04:26.361Z,100.00
2018-12-06T23:07:28.904Z,100.00
2018-12-06T23:14:06.761Z,100.00
2018-12-06T23:16:38.796Z,100.00
2018-12-06T23:19:09.978Z,100.00
2018-12-06T23:21:52.253Z,100.00
2018-12-06T23:24:29.503Z,100.00
2018-12-06T23:27:08.361Z,100.00
2018-12-06T23:29:42.541Z,100.00
2018-12-06T23:32:17.035Z,100.00
2018-12-06T23:35:08.064Z,100.00
2018-12-06T23:37:39.869Z,100.00
2018-12-06T23:40:18.577Z,100.00
2018-12-06T23:42:54.918Z,100.00
2018-12-06T23:45:33.978Z,100.00
2018-12-06T23:48:17.347Z,100.00
2018-12-06T23:50:49.943Z,100.00
2018-12-06T23:53:33.883Z,100.00
2018-12-06T23:56:05.563Z,100.00
2018-12-06T23:58:40.900Z,100.00
